sensor_id;sensor_type;location;lat;lon;timestamp;P1;durP1;ratioP1;P2;durP2;ratioP2
26696;SDS011;14312;52.614;13.496;2023-08-01T00:00:40;4.05;;;3.00;;
26696;SDS011;14312;52.614;13.496;2023-08-01T00:03:26;3.53;;;3.22;;
26696;SDS011;14312;52.614;13.496;2023-08-01T00:06:11;4.25;;;3.22;;
26696;SDS011;14312;52.614;13.496;2023-08-01T00:08:57;4.57;;;3.65;;
26696;SDS011;14312;52.614;13.496;2023-08-01T00:11:43;3.80;;;3.40;;
26696;SDS011;14312;52.614;13.496;2023-08-01T00:14:29;5.30;;;4.05;;
26696;SDS011;14312;52.614;13.496;2023-08-01T00:17:15;5.25;;;3.30;;
26696;SDS011;14312;52.614;13.496;2023-08-01T00:20:01;3.50;;;3.10;;
26696;SDS011;14312;52.614;13.496;2023-08-01T00:22:48;5.88;;;3.83;;
26696;SDS011;14312;52.614;13.496;2023-08-01T00:25:33;6.55;;;3.90;;
26696;SDS011;14312;52.614;13.496;2023-08-01T00:28:21;4.47;;;3.30;;
26696;SDS011;14312;52.614;13.496;2023-08-01T00:31:08;3.97;;;3.33;;
26696;SDS011;14312;52.614;13.496;2023-08-01T00:33:54;5.30;;;3.55;;
26696;SDS011;14312;52.614;13.496;2023-08-01T00:36:40;3.92;;;3.25;;
26696;SDS011;14312;52.614;13.496;2023-08-01T00:39:26;5.82;;;3.50;;
26696;SDS011;14312;52.614;13.496;2023-08-01T00:42:11;4.78;;;3.15;;
26696;SDS011;14312;52.614;13.496;2023-08-01T00:44:58;4.43;;;3.47;;
26696;SDS011;14312;52.614;13.496;2023-08-01T00:47:46;5.03;;;3.28;;
26696;SDS011;14312;52.614;13.496;2023-08-01T00:50:33;3.72;;;3.22;;
26696;SDS011;14312;52.614;13.496;2023-08-01T00:53:19;4.03;;;3.30;;
26696;SDS011;14312;52.614;13.496;2023-08-01T00:56:05;4.53;;;2.83;;
26696;SDS011;14312;52.614;13.496;2023-08-01T00:58:51;3.42;;;3.00;;
26696;SDS011;14312;52.614;13.496;2023-08-01T01:01:37;2.83;;;2.63;;
26696;SDS011;14312;52.614;13.496;2023-08-01T01:04:23;3.05;;;2.67;;
26696;SDS011;14312;52.614;13.496;2023-08-01T01:07:09;2.83;;;2.38;;
26696;SDS011;14312;52.614;13.496;2023-08-01T01:09:55;2.83;;;2.63;;
26696;SDS011;14312;52.614;13.496;2023-08-01T01:12:41;2.58;;;2.38;;
26696;SDS011;14312;52.614;13.496;2023-08-01T01:15:27;2.97;;;2.38;;
26696;SDS011;14312;52.614;13.496;2023-08-01T01:18:12;3.83;;;2.30;;
26696;SDS011;14312;52.614;13.496;2023-08-01T01:20:59;2.42;;;2.13;;
26696;SDS011;14312;52.614;13.496;2023-08-01T01:23:44;2.22;;;2.03;;
26696;SDS011;14312;52.614;13.496;2023-08-01T01:26:32;3.05;;;2.45;;
26696;SDS011;14312;52.614;13.496;2023-08-01T01:29:19;2.60;;;2.25;;
26696;SDS011;14312;52.614;13.496;2023-08-01T01:32:06;3.50;;;2.47;;
26696;SDS011;14312;52.614;13.496;2023-08-01T01:34:53;3.30;;;3.00;;
26696;SDS011;14312;52.614;13.496;2023-08-01T01:37:39;2.88;;;2.40;;
26696;SDS011;14312;52.614;13.496;2023-08-01T01:40:25;2.90;;;2.33;;
26696;SDS011;14312;52.614;13.496;2023-08-01T01:43:11;3.80;;;2.50;;
26696;SDS011;14312;52.614;13.496;2023-08-01T01:45:57;2.67;;;2.47;;
26696;SDS011;14312;52.614;13.496;2023-08-01T01:48:43;3.38;;;2.58;;
26696;SDS011;14312;52.614;13.496;2023-08-01T01:51:29;2.60;;;2.40;;
26696;SDS011;14312;52.614;13.496;2023-08-01T01:54:16;3.72;;;2.60;;
26696;SDS011;14312;52.614;13.496;2023-08-01T01:57:02;3.30;;;3.00;;
26696;SDS011;14312;52.614;13.496;2023-08-01T01:59:48;4.57;;;3.33;;
26696;SDS011;14312;52.614;13.496;2023-08-01T02:02:34;3.05;;;2.72;;
26696;SDS011;14312;52.614;13.496;2023-08-01T02:05:20;3.22;;;2.72;;
26696;SDS011;14312;52.614;13.496;2023-08-01T02:08:05;2.75;;;2.40;;
26696;SDS011;14312;52.614;13.496;2023-08-01T02:10:52;3.28;;;2.97;;
26696;SDS011;14312;52.614;13.496;2023-08-01T02:13:38;2.92;;;2.55;;
26696;SDS011;14312;52.614;13.496;2023-08-01T02:16:23;5.03;;;3.03;;
26696;SDS011;14312;52.614;13.496;2023-08-01T02:19:09;3.08;;;2.78;;
26696;SDS011;14312;52.614;13.496;2023-08-01T02:21:55;4.20;;;2.55;;
26696;SDS011;14312;52.614;13.496;2023-08-01T02:24:41;2.97;;;2.72;;
26696;SDS011;14312;52.614;13.496;2023-08-01T02:27:27;3.00;;;2.70;;
26696;SDS011;14312;52.614;13.496;2023-08-01T02:30:13;3.65;;;2.92;;
26696;SDS011;14312;52.614;13.496;2023-08-01T02:32:59;4.07;;;3.10;;
26696;SDS011;14312;52.614;13.496;2023-08-01T02:35:48;3.92;;;3.20;;
26696;SDS011;14312;52.614;13.496;2023-08-01T02:38:34;2.88;;;2.67;;
26696;SDS011;14312;52.614;13.496;2023-08-01T02:41:20;4.10;;;3.05;;
26696;SDS011;14312;52.614;13.496;2023-08-01T02:44:06;3.17;;;2.67;;
26696;SDS011;14312;52.614;13.496;2023-08-01T02:46:52;3.13;;;2.90;;
26696;SDS011;14312;52.614;13.496;2023-08-01T02:49:38;3.10;;;2.78;;
26696;SDS011;14312;52.614;13.496;2023-08-01T02:52:24;3.65;;;3.13;;
26696;SDS011;14312;52.614;13.496;2023-08-01T02:55:10;3.25;;;2.90;;
26696;SDS011;14312;52.614;13.496;2023-08-01T02:57:56;2.88;;;2.55;;
26696;SDS011;14312;52.614;13.496;2023-08-01T03:00:41;3.03;;;2.80;;
26696;SDS011;14312;52.614;13.496;2023-08-01T03:03:27;4.15;;;3.30;;
26696;SDS011;14312;52.614;13.496;2023-08-01T03:06:14;3.50;;;2.65;;
26696;SDS011;14312;52.614;13.496;2023-08-01T03:09:01;3.45;;;3.10;;
26696;SDS011;14312;52.614;13.496;2023-08-01T03:11:46;3.63;;;2.72;;
26696;SDS011;14312;52.614;13.496;2023-08-01T03:14:33;3.63;;;2.85;;
26696;SDS011;14312;52.614;13.496;2023-08-01T03:17:19;3.30;;;2.92;;
26696;SDS011;14312;52.614;13.496;2023-08-01T03:20:05;3.00;;;2.70;;
26696;SDS011;14312;52.614;13.496;2023-08-01T03:22:56;2.75;;;2.55;;
26696;SDS011;14312;52.614;13.496;2023-08-01T03:25:42;3.25;;;2.78;;
26696;SDS011;14312;52.614;13.496;2023-08-01T03:28:28;4.90;;;2.60;;
26696;SDS011;14312;52.614;13.496;2023-08-01T03:31:14;3.13;;;2.70;;
26696;SDS011;14312;52.614;13.496;2023-08-01T03:34:00;4.60;;;2.80;;
26696;SDS011;14312;52.614;13.496;2023-08-01T03:36:46;4.05;;;2.58;;
26696;SDS011;14312;52.614;13.496;2023-08-01T03:39:32;3.80;;;2.88;;
26696;SDS011;14312;52.614;13.496;2023-08-01T03:42:18;4.95;;;3.38;;
26696;SDS011;14312;52.614;13.496;2023-08-01T03:45:04;4.40;;;3.08;;
26696;SDS011;14312;52.614;13.496;2023-08-01T03:47:51;3.45;;;3.10;;
26696;SDS011;14312;52.614;13.496;2023-08-01T03:50:37;3.20;;;2.90;;
26696;SDS011;14312;52.614;13.496;2023-08-01T03:53:23;3.50;;;3.20;;
26696;SDS011;14312;52.614;13.496;2023-08-01T03:56:08;3.63;;;3.08;;
26696;SDS011;14312;52.614;13.496;2023-08-01T03:58:54;3.30;;;2.67;;
26696;SDS011;14312;52.614;13.496;2023-08-01T04:01:40;4.25;;;3.03;;
26696;SDS011;14312;52.614;13.496;2023-08-01T04:04:27;3.20;;;2.70;;
26696;SDS011;14312;52.614;13.496;2023-08-01T04:07:13;3.88;;;3.08;;
26696;SDS011;14312;52.614;13.496;2023-08-01T04:09:59;4.10;;;3.10;;
26696;SDS011;14312;52.614;13.496;2023-08-01T04:12:44;5.15;;;3.17;;
26696;SDS011;14312;52.614;13.496;2023-08-01T04:15:30;5.07;;;2.97;;
26696;SDS011;14312;52.614;13.496;2023-08-01T04:18:16;3.10;;;2.80;;
26696;SDS011;14312;52.614;13.496;2023-08-01T04:21:02;3.78;;;2.88;;
26696;SDS011;14312;52.614;13.496;2023-08-01T04:23:48;2.95;;;2.65;;
26696;SDS011;14312;52.614;13.496;2023-08-01T04:26:34;3.20;;;2.90;;
26696;SDS011;14312;52.614;13.496;2023-08-01T04:29:22;3.72;;;2.90;;
26696;SDS011;14312;52.614;13.496;2023-08-01T04:32:08;2.70;;;2.45;;
26696;SDS011;14312;52.614;13.496;2023-08-01T04:34:54;2.95;;;2.60;;
26696;SDS011;14312;52.614;13.496;2023-08-01T04:37:40;2.85;;;2.60;;
26696;SDS011;14312;52.614;13.496;2023-08-01T04:40:26;4.45;;;3.03;;
26696;SDS011;14312;52.614;13.496;2023-08-01T04:43:12;3.35;;;2.72;;
26696;SDS011;14312;52.614;13.496;2023-08-01T04:45:59;3.15;;;2.58;;
26696;SDS011;14312;52.614;13.496;2023-08-01T04:48:45;5.03;;;2.58;;
26696;SDS011;14312;52.614;13.496;2023-08-01T04:51:31;2.85;;;2.63;;
26696;SDS011;14312;52.614;13.496;2023-08-01T04:54:17;3.45;;;3.15;;
26696;SDS011;14312;52.614;13.496;2023-08-01T04:57:03;3.95;;;2.67;;
26696;SDS011;14312;52.614;13.496;2023-08-01T04:59:49;4.75;;;3.22;;
26696;SDS011;14312;52.614;13.496;2023-08-01T05:02:35;3.03;;;2.70;;
26696;SDS011;14312;52.614;13.496;2023-08-01T05:05:21;4.50;;;3.20;;
26696;SDS011;14312;52.614;13.496;2023-08-01T05:08:07;3.20;;;2.90;;
26696;SDS011;14312;52.614;13.496;2023-08-01T05:10:53;3.10;;;2.80;;
26696;SDS011;14312;52.614;13.496;2023-08-01T05:13:39;2.63;;;2.38;;
26696;SDS011;14312;52.614;13.496;2023-08-01T05:16:25;4.80;;;2.33;;
26696;SDS011;14312;52.614;13.496;2023-08-01T05:19:11;3.20;;;2.90;;
26696;SDS011;14312;52.614;13.496;2023-08-01T05:21:57;2.70;;;2.50;;
26696;SDS011;14312;52.614;13.496;2023-08-01T05:24:43;3.00;;;2.63;;
26696;SDS011;14312;52.614;13.496;2023-08-01T05:27:29;4.18;;;2.80;;
26696;SDS011;14312;52.614;13.496;2023-08-01T05:30:14;2.58;;;2.38;;
26696;SDS011;14312;52.614;13.496;2023-08-01T05:33:00;2.78;;;2.17;;
26696;SDS011;14312;52.614;13.496;2023-08-01T05:35:47;2.70;;;2.50;;
26696;SDS011;14312;52.614;13.496;2023-08-01T05:38:34;2.70;;;2.50;;
26696;SDS011;14312;52.614;13.496;2023-08-01T05:41:20;2.92;;;2.63;;
26696;SDS011;14312;52.614;13.496;2023-08-01T05:44:06;2.63;;;2.42;;
26696;SDS011;14312;52.614;13.496;2023-08-01T05:46:52;3.03;;;2.50;;
26696;SDS011;14312;52.614;13.496;2023-08-01T05:49:38;3.65;;;3.10;;
26696;SDS011;14312;52.614;13.496;2023-08-01T05:52:23;3.22;;;2.63;;
26696;SDS011;14312;52.614;13.496;2023-08-01T05:55:09;3.65;;;2.70;;
26696;SDS011;14312;52.614;13.496;2023-08-01T05:57:55;2.70;;;2.33;;
26696;SDS011;14312;52.614;13.496;2023-08-01T06:00:41;2.45;;;2.25;;
26696;SDS011;14312;52.614;13.496;2023-08-01T06:03:27;2.97;;;2.65;;
26696;SDS011;14312;52.614;13.496;2023-08-01T06:06:13;3.72;;;2.65;;
26696;SDS011;14312;52.614;13.496;2023-08-01T06:08:59;2.88;;;2.63;;
26696;SDS011;14312;52.614;13.496;2023-08-01T06:11:45;3.10;;;2.80;;
26696;SDS011;14312;52.614;13.496;2023-08-01T06:14:31;3.58;;;2.72;;
26696;SDS011;14312;52.614;13.496;2023-08-01T06:17:17;3.00;;;2.60;;
26696;SDS011;14312;52.614;13.496;2023-08-01T06:20:03;2.90;;;2.58;;
26696;SDS011;14312;52.614;13.496;2023-08-01T06:22:50;2.88;;;2.58;;
26696;SDS011;14312;52.614;13.496;2023-08-01T06:25:36;3.60;;;2.50;;
26696;SDS011;14312;52.614;13.496;2023-08-01T06:28:22;3.00;;;2.70;;
26696;SDS011;14312;52.614;13.496;2023-08-01T06:31:08;3.65;;;2.67;;
26696;SDS011;14312;52.614;13.496;2023-08-01T06:33:54;3.38;;;2.45;;
26696;SDS011;14312;52.614;13.496;2023-08-01T06:36:40;3.20;;;2.60;;
26696;SDS011;14312;52.614;13.496;2023-08-01T06:39:26;3.08;;;2.80;;
26696;SDS011;14312;52.614;13.496;2023-08-01T06:42:12;2.85;;;2.65;;
26696;SDS011;14312;52.614;13.496;2023-08-01T06:44:58;3.30;;;3.00;;
26696;SDS011;14312;52.614;13.496;2023-08-01T06:47:44;2.97;;;2.63;;
26696;SDS011;14312;52.614;13.496;2023-08-01T06:50:30;3.13;;;2.83;;
26696;SDS011;14312;52.614;13.496;2023-08-01T06:53:16;2.95;;;2.60;;
26696;SDS011;14312;52.614;13.496;2023-08-01T06:56:02;4.28;;;2.67;;
26696;SDS011;14312;52.614;13.496;2023-08-01T06:58:48;2.60;;;2.20;;
26696;SDS011;14312;52.614;13.496;2023-08-01T07:01:34;2.63;;;2.42;;
26696;SDS011;14312;52.614;13.496;2023-08-01T07:04:20;2.63;;;2.25;;
26696;SDS011;14312;52.614;13.496;2023-08-01T07:07:06;3.40;;;2.35;;
26696;SDS011;14312;52.614;13.496;2023-08-01T07:09:54;2.53;;;2.33;;
26696;SDS011;14312;52.614;13.496;2023-08-01T07:12:40;2.60;;;2.40;;
26696;SDS011;14312;52.614;13.496;2023-08-01T07:15:26;3.38;;;2.55;;
26696;SDS011;14312;52.614;13.496;2023-08-01T07:18:12;3.17;;;2.55;;
26696;SDS011;14312;52.614;13.496;2023-08-01T07:21:01;2.30;;;2.10;;
26696;SDS011;14312;52.614;13.496;2023-08-01T07:23:48;2.67;;;2.47;;
26696;SDS011;14312;52.614;13.496;2023-08-01T07:26:34;2.85;;;2.60;;
26696;SDS011;14312;52.614;13.496;2023-08-01T07:29:20;2.67;;;2.47;;
26696;SDS011;14312;52.614;13.496;2023-08-01T07:32:06;2.72;;;2.53;;
26696;SDS011;14312;52.614;13.496;2023-08-01T07:34:52;3.28;;;2.75;;
26696;SDS011;14312;52.614;13.496;2023-08-01T07:37:38;2.97;;;2.28;;
26696;SDS011;14312;52.614;13.496;2023-08-01T07:40:24;3.25;;;2.30;;
26696;SDS011;14312;52.614;13.496;2023-08-01T07:43:10;2.72;;;2.50;;
26696;SDS011;14312;52.614;13.496;2023-08-01T07:45:56;3.13;;;2.20;;
26696;SDS011;14312;52.614;13.496;2023-08-01T07:48:43;2.28;;;2.08;;
26696;SDS011;14312;52.614;13.496;2023-08-01T07:51:29;2.45;;;2.25;;
26696;SDS011;14312;52.614;13.496;2023-08-01T07:54:15;2.70;;;2.35;;
26696;SDS011;14312;52.614;13.496;2023-08-01T07:57:01;2.58;;;2.20;;
26696;SDS011;14312;52.614;13.496;2023-08-01T07:59:47;2.63;;;2.35;;
26696;SDS011;14312;52.614;13.496;2023-08-01T08:02:33;4.43;;;2.65;;
26696;SDS011;14312;52.614;13.496;2023-08-01T08:05:19;2.20;;;2.00;;
26696;SDS011;14312;52.614;13.496;2023-08-01T08:08:05;2.00;;;1.90;;
26696;SDS011;14312;52.614;13.496;2023-08-01T08:10:51;3.13;;;2.30;;
26696;SDS011;14312;52.614;13.496;2023-08-01T08:13:37;2.28;;;1.98;;
26696;SDS011;14312;52.614;13.496;2023-08-01T08:16:23;2.97;;;2.15;;
26696;SDS011;14312;52.614;13.496;2023-08-01T08:19:09;2.40;;;2.20;;
26696;SDS011;14312;52.614;13.496;2023-08-01T08:21:55;1.80;;;1.70;;
26696;SDS011;14312;52.614;13.496;2023-08-01T08:24:40;1.92;;;1.73;;
26696;SDS011;14312;52.614;13.496;2023-08-01T08:27:26;2.63;;;2.00;;
26696;SDS011;14312;52.614;13.496;2023-08-01T08:30:12;2.75;;;2.13;;
26696;SDS011;14312;52.614;13.496;2023-08-01T08:32:58;2.88;;;1.90;;
26696;SDS011;14312;52.614;13.496;2023-08-01T08:35:49;2.25;;;1.95;;
26696;SDS011;14312;52.614;13.496;2023-08-01T08:38:35;2.03;;;1.75;;
26696;SDS011;14312;52.614;13.496;2023-08-01T08:41:21;2.00;;;1.80;;
26696;SDS011;14312;52.614;13.496;2023-08-01T08:44:11;1.90;;;1.70;;
26696;SDS011;14312;52.614;13.496;2023-08-01T08:47:02;1.98;;;1.80;;
26696;SDS011;14312;52.614;13.496;2023-08-01T08:49:49;1.80;;;1.70;;
26696;SDS011;14312;52.614;13.496;2023-08-01T08:52:36;1.50;;;1.40;;
26696;SDS011;14312;52.614;13.496;2023-08-01T08:55:23;1.65;;;1.45;;
26696;SDS011;14312;52.614;13.496;2023-08-01T08:58:12;2.47;;;1.70;;
26696;SDS011;14312;52.614;13.496;2023-08-01T09:00:59;1.67;;;1.58;;
26696;SDS011;14312;52.614;13.496;2023-08-01T09:03:47;1.60;;;1.50;;
26696;SDS011;14312;52.614;13.496;2023-08-01T09:06:51;2.15;;;1.77;;
26696;SDS011;14312;52.614;13.496;2023-08-01T09:09:41;1.55;;;1.45;;
26696;SDS011;14312;52.614;13.496;2023-08-01T09:12:27;2.85;;;1.60;;
26696;SDS011;14312;52.614;13.496;2023-08-01T09:15:13;1.80;;;1.60;;
26696;SDS011;14312;52.614;13.496;2023-08-01T09:17:59;1.65;;;1.55;;
26696;SDS011;14312;52.614;13.496;2023-08-01T09:20:46;1.45;;;1.35;;
26696;SDS011;14312;52.614;13.496;2023-08-01T09:23:33;2.40;;;1.58;;
26696;SDS011;14312;52.614;13.496;2023-08-01T09:26:19;1.73;;;1.60;;
26696;SDS011;14312;52.614;13.496;2023-08-01T09:29:06;1.42;;;1.30;;
26696;SDS011;14312;52.614;13.496;2023-08-01T09:31:52;1.20;;;1.10;;
26696;SDS011;14312;52.614;13.496;2023-08-01T09:34:40;1.33;;;1.20;;
26696;SDS011;14312;52.614;13.496;2023-08-01T09:37:37;1.92;;;1.30;;
26696;SDS011;14312;52.614;13.496;2023-08-01T09:40:35;1.73;;;1.40;;
26696;SDS011;14312;52.614;13.496;2023-08-01T09:43:24;1.50;;;1.40;;
26696;SDS011;14312;52.614;13.496;2023-08-01T09:46:20;1.30;;;1.20;;
26696;SDS011;14312;52.614;13.496;2023-08-01T09:49:10;1.10;;;1.00;;
26696;SDS011;14312;52.614;13.496;2023-08-01T09:51:57;0.90;;;0.90;;
26696;SDS011;14312;52.614;13.496;2023-08-01T09:54:43;1.17;;;0.77;;
26696;SDS011;14312;52.614;13.496;2023-08-01T09:57:30;0.90;;;0.90;;
26696;SDS011;14312;52.614;13.496;2023-08-01T10:00:16;1.00;;;1.00;;
26696;SDS011;14312;52.614;13.496;2023-08-01T10:03:02;1.02;;;0.80;;
26696;SDS011;14312;52.614;13.496;2023-08-01T10:05:49;0.70;;;0.70;;
26696;SDS011;14312;52.614;13.496;2023-08-01T10:08:39;0.98;;;0.98;;
26696;SDS011;14312;52.614;13.496;2023-08-01T10:11:25;0.77;;;0.77;;
26696;SDS011;14312;52.614;13.496;2023-08-01T10:14:12;1.10;;;1.00;;
26696;SDS011;14312;52.614;13.496;2023-08-01T10:16:58;1.45;;;1.00;;
26696;SDS011;14312;52.614;13.496;2023-08-01T10:19:45;1.00;;;0.90;;
26696;SDS011;14312;52.614;13.496;2023-08-01T10:22:34;1.00;;;0.90;;
26696;SDS011;14312;52.614;13.496;2023-08-01T10:25:20;1.67;;;0.95;;
26696;SDS011;14312;52.614;13.496;2023-08-01T10:28:07;1.08;;;0.98;;
26696;SDS011;14312;52.614;13.496;2023-08-01T10:30:53;1.30;;;0.82;;
26696;SDS011;14312;52.614;13.496;2023-08-01T10:33:40;1.17;;;1.00;;
26696;SDS011;14312;52.614;13.496;2023-08-01T10:36:28;1.10;;;1.00;;
26696;SDS011;14312;52.614;13.496;2023-08-01T10:39:20;0.90;;;0.90;;
26696;SDS011;14312;52.614;13.496;2023-08-01T10:42:08;0.90;;;0.90;;
26696;SDS011;14312;52.614;13.496;2023-08-01T10:44:57;1.13;;;0.90;;
26696;SDS011;14312;52.614;13.496;2023-08-01T10:47:43;0.98;;;0.80;;
26696;SDS011;14312;52.614;13.496;2023-08-01T10:50:29;1.92;;;1.05;;
26696;SDS011;14312;52.614;13.496;2023-08-01T10:53:15;1.15;;;0.95;;
26696;SDS011;14312;52.614;13.496;2023-08-01T10:56:02;1.05;;;1.00;;
26696;SDS011;14312;52.614;13.496;2023-08-01T10:58:48;1.02;;;0.85;;
26696;SDS011;14312;52.614;13.496;2023-08-01T11:01:43;0.80;;;0.80;;
26696;SDS011;14312;52.614;13.496;2023-08-01T11:04:29;1.00;;;1.00;;
26696;SDS011;14312;52.614;13.496;2023-08-01T11:07:15;0.63;;;0.63;;
26696;SDS011;14312;52.614;13.496;2023-08-01T11:10:12;1.13;;;1.05;;
26696;SDS011;14312;52.614;13.496;2023-08-01T11:12:59;1.08;;;0.88;;
26696;SDS011;14312;52.614;13.496;2023-08-01T11:15:45;1.25;;;0.80;;
26696;SDS011;14312;52.614;13.496;2023-08-01T11:18:41;1.10;;;1.00;;
26696;SDS011;14312;52.614;13.496;2023-08-01T11:21:28;1.08;;;0.90;;
26696;SDS011;14312;52.614;13.496;2023-08-01T11:24:14;1.27;;;1.17;;
26696;SDS011;14312;52.614;13.496;2023-08-01T11:27:01;1.63;;;1.52;;
26696;SDS011;14312;52.614;13.496;2023-08-01T11:29:47;1.75;;;1.58;;
26696;SDS011;14312;52.614;13.496;2023-08-01T11:32:34;2.28;;;1.65;;
26696;SDS011;14312;52.614;13.496;2023-08-01T11:35:21;1.67;;;1.40;;
26696;SDS011;14312;52.614;13.496;2023-08-01T11:38:07;1.48;;;1.38;;
26696;SDS011;14312;52.614;13.496;2023-08-01T11:40:53;1.83;;;1.60;;
26696;SDS011;14312;52.614;13.496;2023-08-01T11:43:40;1.83;;;1.50;;
26696;SDS011;14312;52.614;13.496;2023-08-01T11:46:30;2.22;;;1.70;;
26696;SDS011;14312;52.614;13.496;2023-08-01T11:49:18;1.60;;;1.50;;
26696;SDS011;14312;52.614;13.496;2023-08-01T11:52:04;1.45;;;1.35;;
26696;SDS011;14312;52.614;13.496;2023-08-01T11:54:51;1.50;;;1.40;;
26696;SDS011;14312;52.614;13.496;2023-08-01T11:57:37;2.33;;;1.67;;
26696;SDS011;14312;52.614;13.496;2023-08-01T12:00:24;2.30;;;2.10;;
26696;SDS011;14312;52.614;13.496;2023-08-01T12:03:11;2.60;;;2.05;;
26696;SDS011;14312;52.614;13.496;2023-08-01T12:06:17;2.00;;;1.90;;
26696;SDS011;14312;52.614;13.496;2023-08-01T12:09:12;2.22;;;2.13;;
26696;SDS011;14312;52.614;13.496;2023-08-01T12:11:58;2.13;;;2.00;;
26696;SDS011;14312;52.614;13.496;2023-08-01T12:14:46;1.90;;;1.70;;
26696;SDS011;14312;52.614;13.496;2023-08-01T12:17:32;1.95;;;1.85;;
26696;SDS011;14312;52.614;13.496;2023-08-01T12:20:18;1.83;;;1.73;;
26696;SDS011;14312;52.614;13.496;2023-08-01T12:23:04;3.05;;;2.22;;
26696;SDS011;14312;52.614;13.496;2023-08-01T12:25:50;2.20;;;1.90;;
26696;SDS011;14312;52.614;13.496;2023-08-01T12:28:36;2.72;;;2.10;;
26696;SDS011;14312;52.614;13.496;2023-08-01T12:31:22;2.20;;;2.00;;
26696;SDS011;14312;52.614;13.496;2023-08-01T12:34:09;2.25;;;1.90;;
26696;SDS011;14312;52.614;13.496;2023-08-01T12:36:55;1.73;;;1.63;;
26696;SDS011;14312;52.614;13.496;2023-08-01T12:39:40;2.03;;;1.83;;
26696;SDS011;14312;52.614;13.496;2023-08-01T12:42:26;3.55;;;2.55;;
26696;SDS011;14312;52.614;13.496;2023-08-01T12:45:12;2.55;;;2.33;;
26696;SDS011;14312;52.614;13.496;2023-08-01T12:47:59;2.72;;;2.42;;
26696;SDS011;14312;52.614;13.496;2023-08-01T12:50:45;2.22;;;2.03;;
26696;SDS011;14312;52.614;13.496;2023-08-01T12:53:32;2.38;;;2.13;;
26696;SDS011;14312;52.614;13.496;2023-08-01T12:56:18;2.15;;;1.95;;
26696;SDS011;14312;52.614;13.496;2023-08-01T12:59:04;2.42;;;2.22;;
26696;SDS011;14312;52.614;13.496;2023-08-01T13:01:49;2.40;;;2.20;;
26696;SDS011;14312;52.614;13.496;2023-08-01T13:04:35;2.78;;;2.20;;
26696;SDS011;14312;52.614;13.496;2023-08-01T13:07:21;2.72;;;2.30;;
26696;SDS011;14312;52.614;13.496;2023-08-01T13:10:07;2.30;;;1.80;;
26696;SDS011;14312;52.614;13.496;2023-08-01T13:12:54;2.40;;;1.90;;
26696;SDS011;14312;52.614;13.496;2023-08-01T13:15:39;2.45;;;2.25;;
26696;SDS011;14312;52.614;13.496;2023-08-01T13:18:25;2.38;;;2.17;;
26696;SDS011;14312;52.614;13.496;2023-08-01T13:21:12;2.67;;;2.30;;
26696;SDS011;14312;52.614;13.496;2023-08-01T13:23:58;2.67;;;2.20;;
26696;SDS011;14312;52.614;13.496;2023-08-01T13:26:44;2.97;;;2.42;;
26696;SDS011;14312;52.614;13.496;2023-08-01T13:29:29;3.00;;;2.30;;
26696;SDS011;14312;52.614;13.496;2023-08-01T13:32:15;2.90;;;2.60;;
26696;SDS011;14312;52.614;13.496;2023-08-01T13:35:01;2.42;;;2.20;;
26696;SDS011;14312;52.614;13.496;2023-08-01T13:37:47;2.20;;;1.90;;
26696;SDS011;14312;52.614;13.496;2023-08-01T13:40:33;3.47;;;2.40;;
26696;SDS011;14312;52.614;13.496;2023-08-01T13:43:20;2.67;;;2.47;;
26696;SDS011;14312;52.614;13.496;2023-08-01T13:46:16;3.55;;;2.55;;
26696;SDS011;14312;52.614;13.496;2023-08-01T13:49:03;2.50;;;2.30;;
26696;SDS011;14312;52.614;13.496;2023-08-01T13:51:49;2.70;;;2.35;;
26696;SDS011;14312;52.614;13.496;2023-08-01T13:54:34;2.50;;;2.30;;
26696;SDS011;14312;52.614;13.496;2023-08-01T13:57:20;2.70;;;2.50;;
26696;SDS011;14312;52.614;13.496;2023-08-01T14:00:09;2.47;;;2.28;;
26696;SDS011;14312;52.614;13.496;2023-08-01T14:02:56;2.70;;;2.17;;
26696;SDS011;14312;52.614;13.496;2023-08-01T14:05:42;3.00;;;2.70;;
26696;SDS011;14312;52.614;13.496;2023-08-01T14:08:28;2.42;;;2.22;;
26696;SDS011;14312;52.614;13.496;2023-08-01T14:11:14;2.47;;;2.28;;
26696;SDS011;14312;52.614;13.496;2023-08-01T14:14:00;4.40;;;2.42;;
26696;SDS011;14312;52.614;13.496;2023-08-01T14:16:46;2.75;;;2.50;;
26696;SDS011;14312;52.614;13.496;2023-08-01T14:19:32;2.60;;;2.25;;
26696;SDS011;14312;52.614;13.496;2023-08-01T14:22:18;3.25;;;2.55;;
26696;SDS011;14312;52.614;13.496;2023-08-01T14:25:05;3.25;;;2.30;;
26696;SDS011;14312;52.614;13.496;2023-08-01T14:27:51;2.15;;;1.95;;
26696;SDS011;14312;52.614;13.496;2023-08-01T14:30:38;2.30;;;2.10;;
26696;SDS011;14312;52.614;13.496;2023-08-01T14:33:24;2.50;;;2.30;;
26696;SDS011;14312;52.614;13.496;2023-08-01T14:36:10;3.10;;;2.78;;
26696;SDS011;14312;52.614;13.496;2023-08-01T14:38:57;2.92;;;2.55;;
26696;SDS011;14312;52.614;13.496;2023-08-01T14:41:43;3.05;;;2.75;;
26696;SDS011;14312;52.614;13.496;2023-08-01T14:44:29;2.20;;;1.98;;
26696;SDS011;14312;52.614;13.496;2023-08-01T14:47:15;2.05;;;1.95;;
26696;SDS011;14312;52.614;13.496;2023-08-01T14:50:01;2.20;;;2.00;;
26696;SDS011;14312;52.614;13.496;2023-08-01T14:52:47;2.20;;;2.00;;
26696;SDS011;14312;52.614;13.496;2023-08-01T14:55:35;2.88;;;2.20;;
26696;SDS011;14312;52.614;13.496;2023-08-01T14:58:20;2.35;;;2.13;;
26696;SDS011;14312;52.614;13.496;2023-08-01T15:01:13;2.63;;;1.98;;
26696;SDS011;14312;52.614;13.496;2023-08-01T15:04:03;1.90;;;1.80;;
26696;SDS011;14312;52.614;13.496;2023-08-01T15:06:50;2.25;;;1.80;;
26696;SDS011;14312;52.614;13.496;2023-08-01T15:09:35;1.80;;;1.70;;
26696;SDS011;14312;52.614;13.496;2023-08-01T15:12:21;2.50;;;2.05;;
26696;SDS011;14312;52.614;13.496;2023-08-01T15:15:09;2.25;;;2.05;;
26696;SDS011;14312;52.614;13.496;2023-08-01T15:17:55;3.47;;;1.92;;
26696;SDS011;14312;52.614;13.496;2023-08-01T15:20:41;1.60;;;1.50;;
26696;SDS011;14312;52.614;13.496;2023-08-01T15:23:27;1.20;;;1.10;;
26696;SDS011;14312;52.614;13.496;2023-08-01T15:26:13;1.35;;;1.25;;
26696;SDS011;14312;52.614;13.496;2023-08-01T15:28:59;1.48;;;1.23;;
26696;SDS011;14312;52.614;13.496;2023-08-01T15:31:45;1.23;;;1.13;;
26696;SDS011;14312;52.614;13.496;2023-08-01T15:34:31;0.95;;;0.93;;
26696;SDS011;14312;52.614;13.496;2023-08-01T15:37:17;1.23;;;1.13;;
26696;SDS011;14312;52.614;13.496;2023-08-01T15:40:03;1.58;;;1.00;;
26696;SDS011;14312;52.614;13.496;2023-08-01T15:42:50;1.23;;;1.13;;
26696;SDS011;14312;52.614;13.496;2023-08-01T15:45:35;1.75;;;1.20;;
26696;SDS011;14312;52.614;13.496;2023-08-01T15:48:21;1.90;;;1.38;;
26696;SDS011;14312;52.614;13.496;2023-08-01T15:51:07;2.00;;;1.33;;
26696;SDS011;14312;52.614;13.496;2023-08-01T15:53:53;2.10;;;1.90;;
26696;SDS011;14312;52.614;13.496;2023-08-01T15:56:39;1.40;;;1.30;;
26696;SDS011;14312;52.614;13.496;2023-08-01T15:59:27;1.90;;;1.40;;
26696;SDS011;14312;52.614;13.496;2023-08-01T16:02:13;1.63;;;1.52;;
26696;SDS011;14312;52.614;13.496;2023-08-01T16:04:59;1.77;;;1.48;;
26696;SDS011;14312;52.614;13.496;2023-08-01T16:07:45;1.55;;;1.40;;
26696;SDS011;14312;52.614;13.496;2023-08-01T16:10:31;1.73;;;1.30;;
26696;SDS011;14312;52.614;13.496;2023-08-01T16:13:17;1.48;;;1.35;;
26696;SDS011;14312;52.614;13.496;2023-08-01T16:16:04;2.38;;;1.65;;
26696;SDS011;14312;52.614;13.496;2023-08-01T16:18:51;2.30;;;1.40;;
26696;SDS011;14312;52.614;13.496;2023-08-01T16:21:37;2.55;;;1.40;;
26696;SDS011;14312;52.614;13.496;2023-08-01T16:24:23;1.58;;;1.48;;
26696;SDS011;14312;52.614;13.496;2023-08-01T16:27:08;1.95;;;1.50;;